Time,TemperatureF,DewpointF,PressureIn,WindDirection,WindDirectionDegrees,WindSpeedMPH,WindSpeedGustMPH,Humidity,HourlyPrecipIn,Conditions,Clouds,dailyrainin,SoftwareType,DateUTC
2013-03-31 00:00:00,32.0,25.9,30.02,SSE,158,2.0,4.0,78,0.00,,---,0.00,VWS V14.01,2013-03-31 04:00:00,
2013-03-31 00:02:00,32.0,25.9,30.02,SE,135,1.0,3.0,78,0.00,,---,0.00,VWS V14.01,2013-03-31 04:02:00,
2013-03-31 00:07:00,32.0,25.9,30.02,SE,135,0.0,3.0,78,0.00,,---,0.00,VWS V14.01,2013-03-31 04:07:00,
2013-03-31 00:12:00,32.0,26.2,30.01,SSE,158,0.0,3.0,79,0.00,,---,0.00,VWS V14.01,2013-03-31 04:12:00,
2013-03-31 00:17:00,32.0,26.2,30.01,SSE,158,0.0,3.0,79,0.00,,---,0.00,VWS V14.01,2013-03-31 04:17:00,
2013-03-31 00:23:00,32.0,26.5,30.01,SSE,158,0.0,1.0,80,0.00,,---,0.00,VWS V14.01,2013-03-31 04:23:00,
2013-03-31 00:28:00,32.0,26.5,30.01,SSE,158,0.0,1.0,80,0.00,,---,0.00,VWS V14.01,2013-03-31 04:28:00,
2013-03-31 00:33:00,32.0,26.5,30.00,SE,135,0.0,3.0,80,0.00,,---,0.00,VWS V14.01,2013-03-31 04:33:00,
2013-03-31 00:38:00,32.0,26.5,30.00,SE,135,1.0,3.0,80,0.00,,---,0.00,VWS V14.01,2013-03-31 04:38:00,
2013-03-31 00:43:00,32.0,26.5,30.00,SE,135,1.0,3.0,80,0.00,,---,0.00,VWS V14.01,2013-03-31 04:43:00,
2013-03-31 00:48:00,32.0,26.5,30.00,SE,135,2.0,3.0,80,0.00,,---,0.00,VWS V14.01,2013-03-31 04:48:00,
2013-03-31 00:53:00,32.0,26.5,30.00,SE,135,1.0,3.0,80,0.00,,---,0.00,VWS V14.01,2013-03-31 04:53:00,
2013-03-31 00:58:00,32.0,26.5,30.00,SE,135,3.0,4.0,80,0.00,,---,0.00,VWS V14.01,2013-03-31 04:58:00,
2013-03-31 01:03:00,32.0,26.5,29.99,South,180,1.0,4.0,80,0.00,,---,0.00,VWS V14.01,2013-03-31 05:03:00,
2013-03-31 01:09:00,32.0,26.2,29.99,SE,135,1.0,4.0,79,0.00,,---,0.00,VWS V14.01,2013-03-31 05:09:00,
2013-03-31 01:14:00,32.0,26.2,29.99,SE,135,1.0,4.0,79,0.00,,---,0.00,VWS V14.01,2013-03-31 05:14:00,
2013-03-31 01:19:00,32.0,26.2,29.99,SSE,158,2.0,4.0,79,0.00,,---,0.00,VWS V14.01,2013-03-31 05:19:00,
2013-03-31 01:24:00,32.0,26.2,29.99,SE,135,2.0,3.0,79,0.00,,---,0.00,VWS V14.01,2013-03-31 05:24:00,
2013-03-31 01:29:00,32.0,26.2,29.98,SSE,158,2.0,5.0,79,0.00,,---,0.00,VWS V14.01,2013-03-31 05:29:00,
2013-03-31 01:34:00,32.0,26.2,29.98,SSW,202,1.0,5.0,79,0.00,,---,0.00,VWS V14.01,2013-03-31 05:34:00,
2013-03-31 01:39:00,32.0,26.2,29.98,SSE,158,1.0,5.0,79,0.00,,---,0.00,VWS V14.01,2013-03-31 05:39:00,
2013-03-31 01:44:00,32.0,26.2,29.98,SE,135,0.0,2.0,79,0.00,,---,0.00,VWS V14.01,2013-03-31 05:44:00,
2013-03-31 01:49:00,32.0,26.2,29.98,ESE,112,0.0,2.0,79,0.00,,---,0.00,VWS V14.01,2013-03-31 05:49:00,
2013-03-31 01:54:00,32.0,26.2,29.97,ESE,112,1.0,4.0,79,0.00,,---,0.00,VWS V14.01,2013-03-31 05:54:00,
2013-03-31 01:59:00,32.0,26.2,29.97,SE,135,0.0,4.0,79,0.00,,---,0.00,VWS V14.01,2013-03-31 05:59:00,
2013-03-31 02:04:00,32.0,26.2,29.97,NE,45,1.0,1.0,79,0.00,,---,0.00,VWS V14.01,2013-03-31 06:04:00,
2013-03-31 02:09:00,32.0,26.2,29.97,NNE,22,0.0,1.0,79,0.00,,---,0.00,VWS V14.01,2013-03-31 06:09:00,
2013-03-31 02:14:00,32.0,26.2,29.97,NNE,22,0.0,1.0,79,0.00,,---,0.00,VWS V14.01,2013-03-31 06:14:00,
2013-03-31 02:19:00,32.0,25.9,29.97,NNE,22,0.0,1.0,78,0.00,,---,0.00,VWS V14.01,2013-03-31 06:19:00,
2013-03-31 02:25:00,32.0,25.3,29.97,North,0,1.0,1.0,76,0.00,,---,0.00,VWS V14.01,2013-03-31 06:25:00,
2013-03-31 02:30:00,33.0,26.3,29.96,NNE,22,1.0,3.0,76,0.00,,---,0.00,VWS V14.01,2013-03-31 06:30:00,
2013-03-31 02:35:00,33.0,26.3,29.96,NE,45,0.0,3.0,76,0.00,,---,0.00,VWS V14.01,2013-03-31 06:35:00,
2013-03-31 02:40:00,33.0,26.3,29.96,NE,45,0.0,0.0,76,0.00,,---,0.00,VWS V14.01,2013-03-31 06:40:00,
2013-03-31 02:45:00,33.0,26.0,29.95,NE,45,0.0,1.0,75,0.00,,---,0.00,VWS V14.01,2013-03-31 06:45:00,
2013-03-31 02:50:00,33.0,25.6,29.95,ENE,68,0.0,1.0,74,0.00,,---,0.00,VWS V14.01,2013-03-31 06:50:00,
2013-03-31 02:55:00,33.0,25.0,29.95,NE,45,2.0,2.0,72,0.00,,---,0.00,VWS V14.01,2013-03-31 06:55:00,
2013-03-31 03:00:00,33.0,24.3,29.95,NE,45,0.0,1.0,70,0.00,,---,0.00,VWS V14.01,2013-03-31 07:00:00,
2013-03-31 03:05:00,34.0,25.6,29.95,NE,45,0.0,2.0,71,0.00,,---,0.00,VWS V14.01,2013-03-31 07:05:00,
2013-03-31 03:11:00,34.0,25.9,29.95,NE,45,0.0,2.0,72,0.00,,---,0.00,VWS V14.01,2013-03-31 07:11:00,
2013-03-31 03:16:00,34.0,25.6,29.94,ENE,68,1.0,2.0,71,0.00,,---,0.00,VWS V14.01,2013-03-31 07:16:00,
2013-03-31 03:21:00,34.0,25.3,29.94,ENE,68,0.0,1.0,70,0.00,,---,0.00,VWS V14.01,2013-03-31 07:21:00,
2013-03-31 03:26:00,33.0,24.0,29.94,NE,45,0.0,2.0,69,0.00,,---,0.00,VWS V14.01,2013-03-31 07:26:00,
2013-03-31 03:31:00,33.0,24.3,29.94,NE,45,1.0,2.0,70,0.00,,---,0.00,VWS V14.01,2013-03-31 07:31:00,
2013-03-31 03:36:00,33.0,24.3,29.93,NE,45,1.0,3.0,70,0.00,,---,0.00,VWS V14.01,2013-03-31 07:36:00,
2013-03-31 03:41:00,33.0,24.3,29.93,ENE,68,0.0,0.0,70,0.00,,---,0.00,VWS V14.01,2013-03-31 07:41:00,
2013-03-31 03:46:00,33.0,24.6,29.93,NE,45,0.0,0.0,71,0.00,,---,0.00,VWS V14.01,2013-03-31 07:46:00,
2013-03-31 03:51:00,33.0,24.6,29.93,ENE,68,0.0,1.0,71,0.00,,---,0.00,VWS V14.01,2013-03-31 07:51:00,
2013-03-31 03:56:00,33.0,24.0,29.92,NE,45,1.0,3.0,69,0.00,,---,0.00,VWS V14.01,2013-03-31 07:56:00,
2013-03-31 04:01:00,33.0,24.3,29.92,ENE,68,1.0,1.0,70,0.00,,---,0.00,VWS V14.01,2013-03-31 08:01:00,
2013-03-31 04:06:00,33.0,24.6,29.92,East,90,1.0,1.0,71,0.00,,---,0.00,VWS V14.01,2013-03-31 08:06:00,
2013-03-31 04:11:00,33.0,24.6,29.91,SE,135,1.0,3.0,71,0.00,,---,0.00,VWS V14.01,2013-03-31 08:11:00,
2013-03-31 04:17:00,33.0,24.6,29.91,SSE,158,1.0,5.0,71,0.00,,---,0.00,VWS V14.01,2013-03-31 08:17:00,
2013-03-31 04:22:00,33.0,24.3,29.91,SSE,158,1.0,5.0,70,0.00,,---,0.00,VWS V14.01,2013-03-31 08:22:00,
2013-03-31 04:27:00,33.0,24.0,29.91,SE,135,1.0,5.0,69,0.00,,---,0.00,VWS V14.01,2013-03-31 08:27:00,
2013-03-31 04:32:00,34.0,24.2,29.90,ESE,112,3.0,6.0,67,0.00,,---,0.00,VWS V14.01,2013-03-31 08:32:00,
2013-03-31 04:37:00,34.0,24.2,29.90,SE,135,1.0,6.0,67,0.00,,---,0.00,VWS V14.01,2013-03-31 08:37:00,
2013-03-31 04:42:00,36.0,24.3,29.90,SSE,158,6.0,8.0,62,0.00,,---,0.00,VWS V14.01,2013-03-31 08:42:00,
2013-03-31 04:47:00,38.0,22.9,29.90,SSE,158,5.0,11.0,54,0.00,,---,0.00,VWS V14.01,2013-03-31 08:47:00,
2013-03-31 04:52:00,40.0,22.9,29.90,SSE,158,6.0,13.0,50,0.00,,---,0.00,VWS V14.01,2013-03-31 08:52:00,
2013-03-31 04:57:00,40.0,21.9,29.89,SE,135,6.0,13.0,48,0.00,,---,0.00,VWS V14.01,2013-03-31 08:57:00,
2013-03-31 05:02:00,40.0,20.9,29.89,South,180,10.0,11.0,46,0.00,,---,0.00,VWS V14.01,2013-03-31 09:02:00,
2013-03-31 05:07:00,40.0,20.9,29.89,SE,135,7.0,12.0,46,0.00,,---,0.00,VWS V14.01,2013-03-31 09:07:00,
2013-03-31 05:12:00,40.0,20.9,29.88,SSE,158,5.0,13.0,46,0.00,,---,0.00,VWS V14.01,2013-03-31 09:12:00,
2013-03-31 05:18:00,40.0,20.9,29.88,SE,135,6.0,13.0,46,0.00,,---,0.00,VWS V14.01,2013-03-31 09:18:00,
2013-03-31 05:23:00,40.0,20.4,29.88,SE,135,8.0,11.0,45,0.00,,---,0.00,VWS V14.01,2013-03-31 09:23:00,
2013-03-31 05:28:00,40.0,20.4,29.87,SSE,158,6.0,11.0,45,0.00,,---,0.00,VWS V14.01,2013-03-31 09:28:00,
2013-03-31 05:33:00,40.0,20.4,29.87,SE,135,6.0,11.0,45,0.00,,---,0.00,VWS V14.01,2013-03-31 09:33:00,
2013-03-31 05:38:00,40.0,20.4,29.87,SE,135,6.0,11.0,45,0.00,,---,0.00,VWS V14.01,2013-03-31 09:38:00,
2013-03-31 05:43:00,40.0,20.4,29.87,SE,135,8.0,10.0,45,0.00,,---,0.00,VWS V14.01,2013-03-31 09:43:00,
2013-03-31 05:48:00,40.0,20.4,29.87,South,180,4.0,10.0,45,0.00,,---,0.00,VWS V14.01,2013-03-31 09:48:00,
2013-03-31 05:54:00,40.0,20.4,29.87,SSE,158,6.0,13.0,45,0.00,,---,0.00,VWS V14.01,2013-03-31 09:54:00,
2013-03-31 05:59:00,40.0,20.4,29.87,South,180,6.0,13.0,45,0.00,,---,0.00,VWS V14.01,2013-03-31 09:59:00,
2013-03-31 06:04:00,40.0,20.4,29.86,SE,135,7.0,11.0,45,0.00,,---,0.00,VWS V14.01,2013-03-31 10:04:00,
2013-03-31 06:09:00,40.0,20.4,29.86,SE,135,8.0,13.0,45,0.00,,---,0.00,VWS V14.01,2013-03-31 10:09:00,
2013-03-31 06:14:00,40.0,20.4,29.86,SSE,158,9.0,14.0,45,0.00,,---,0.00,VWS V14.01,2013-03-31 10:14:00,
2013-03-31 06:19:00,40.0,19.9,29.86,South,180,6.0,14.0,44,0.00,,---,0.00,VWS V14.01,2013-03-31 10:19:00,
2013-03-31 06:24:00,40.0,20.4,29.86,SSE,158,5.0,10.0,45,0.00,,---,0.00,VWS V14.01,2013-03-31 10:24:00,
2013-03-31 06:29:00,40.0,20.4,29.86,SE,135,6.0,13.0,45,0.00,,---,0.00,VWS V14.01,2013-03-31 10:29:00,
2013-03-31 06:35:00,40.0,19.9,29.85,SSE,158,5.0,13.0,44,0.00,,---,0.00,VWS V14.01,2013-03-31 10:35:00,
2013-03-31 06:40:00,40.0,19.9,29.86,SE,135,9.0,13.0,44,0.00,,---,0.00,VWS V14.01,2013-03-31 10:40:00,
2013-03-31 06:45:00,40.0,19.9,29.85,SE,135,5.0,10.0,44,0.00,,---,0.00,VWS V14.01,2013-03-31 10:45:00,
2013-03-31 06:50:00,40.0,20.4,29.86,SE,135,3.0,10.0,45,0.00,,---,0.00,VWS V14.01,2013-03-31 10:50:00,
2013-03-31 06:55:00,40.0,19.9,29.86,SE,135,6.0,10.0,44,0.00,,---,0.00,VWS V14.01,2013-03-31 10:55:00,
2013-03-31 07:00:00,40.0,20.4,29.85,SSE,158,3.0,10.0,45,0.00,,---,0.00,VWS V14.01,2013-03-31 11:00:00,
2013-03-31 07:05:00,40.0,20.4,29.85,SE,135,5.0,8.0,45,0.00,,---,0.00,VWS V14.01,2013-03-31 11:05:00,
2013-03-31 07:10:00,40.0,20.4,29.85,SE,135,5.0,10.0,45,0.00,,---,0.00,VWS V14.01,2013-03-31 11:10:00,
2013-03-31 07:15:00,40.0,20.4,29.85,SSE,158,7.0,10.0,45,0.00,,---,0.00,VWS V14.01,2013-03-31 11:15:00,
2013-03-31 07:20:00,40.0,20.4,29.85,SE,135,6.0,8.0,45,0.00,,---,0.00,VWS V14.01,2013-03-31 11:20:00,
2013-03-31 07:25:00,40.0,20.4,29.85,SE,135,8.0,11.0,45,0.00,,---,0.00,VWS V14.01,2013-03-31 11:25:00,
2013-03-31 07:30:00,40.0,20.4,29.85,SE,135,9.0,12.0,45,0.00,,---,0.00,VWS V14.01,2013-03-31 11:30:00,
2013-03-31 07:36:00,40.0,20.4,29.85,SSE,158,8.0,12.0,45,0.00,,---,0.00,VWS V14.01,2013-03-31 11:36:00,
2013-03-31 07:41:00,40.0,20.4,29.84,SSE,158,10.0,10.0,45,0.00,,---,0.00,VWS V14.01,2013-03-31 11:41:00,
2013-03-31 07:46:00,41.0,21.3,29.84,SE,135,7.0,12.0,45,0.00,,---,0.00,VWS V14.01,2013-03-31 11:46:00,
2013-03-31 07:51:00,41.0,21.3,29.84,SE,135,4.0,12.0,45,0.00,,---,0.00,VWS V14.01,2013-03-31 11:51:00,
2013-03-31 07:56:00,41.0,21.3,29.84,SE,135,7.0,12.0,45,0.00,,---,0.00,VWS V14.01,2013-03-31 11:56:00,
2013-03-31 08:02:00,41.0,21.3,29.83,SE,135,5.0,6.0,45,0.00,,---,0.00,VWS V14.01,2013-03-31 12:02:00,
2013-03-31 08:07:00,41.0,21.3,29.83,SSE,158,5.0,10.0,45,0.00,,---,0.00,VWS V14.01,2013-03-31 12:07:00,
2013-03-31 08:12:00,41.0,21.3,29.83,SSE,158,8.0,11.0,45,0.00,,---,0.00,VWS V14.01,2013-03-31 12:12:00,
2013-03-31 08:17:00,41.0,21.3,29.83,SSE,158,5.0,11.0,45,0.00,,---,0.00,VWS V14.01,2013-03-31 12:17:00,
2013-03-31 08:22:00,41.0,21.3,29.83,South,180,7.0,10.0,45,0.00,,---,0.00,VWS V14.01,2013-03-31 12:22:00,
2013-03-31 08:27:00,42.0,22.2,29.82,SSE,158,3.0,10.0,45,0.00,,---,0.00,VWS V14.01,2013-03-31 12:27:00,
2013-03-31 08:32:00,42.0,22.2,29.82,ESE,112,3.0,10.0,45,0.00,,---,0.00,VWS V14.01,2013-03-31 12:32:00,
2013-03-31 08:37:00,42.0,22.2,29.82,SE,135,7.0,10.0,45,0.00,,---,0.00,VWS V14.01,2013-03-31 12:37:00,
2013-03-31 08:42:00,42.0,22.2,29.82,SE,135,5.0,6.0,45,0.00,,---,0.00,VWS V14.01,2013-03-31 12:42:00,
2013-03-31 08:48:00,42.0,22.2,29.81,SSE,158,8.0,11.0,45,0.00,,---,0.00,VWS V14.01,2013-03-31 12:48:00,
2013-03-31 08:53:00,42.0,22.2,29.81,SSE,158,3.0,11.0,45,0.00,,---,0.00,VWS V14.01,2013-03-31 12:53:00,
2013-03-31 08:58:00,43.0,23.1,29.81,SE,135,3.0,11.0,45,0.00,,---,0.00,VWS V14.01,2013-03-31 12:58:00,
2013-03-31 09:03:00,43.0,23.1,29.81,SE,135,4.0,8.0,45,0.00,,---,0.00,VWS V14.01,2013-03-31 13:03:00,
2013-03-31 09:08:00,43.0,23.6,29.80,SE,135,3.0,9.0,46,0.00,,---,0.00,VWS V14.01,2013-03-31 13:08:00,
2013-03-31 09:13:00,43.0,23.1,29.80,SSE,158,4.0,9.0,45,0.00,,---,0.00,VWS V14.01,2013-03-31 13:13:00,
2013-03-31 09:18:00,43.0,23.1,29.80,SE,135,4.0,9.0,45,0.00,,---,0.00,VWS V14.01,2013-03-31 13:18:00,
2013-03-31 09:23:00,44.0,24.0,29.80,SSE,158,2.0,8.0,45,0.00,,---,0.00,VWS V14.01,2013-03-31 13:23:00,
2013-03-31 09:28:00,44.0,24.0,29.79,South,180,5.0,8.0,45,0.00,,---,0.00,VWS V14.01,2013-03-31 13:28:00,
2013-03-31 09:33:00,44.0,23.5,29.79,South,180,5.0,10.0,44,0.00,,---,0.00,VWS V14.01,2013-03-31 13:33:00,
2013-03-31 09:39:00,45.0,24.4,29.79,South,180,5.0,10.0,44,0.00,,---,0.00,VWS V14.01,2013-03-31 13:39:00,
2013-03-31 09:44:00,45.0,24.4,29.79,SE,135,6.0,10.0,44,0.00,,---,0.00,VWS V14.01,2013-03-31 13:44:00,
2013-03-31 09:49:00,45.0,24.4,29.79,SSE,158,6.0,10.0,44,0.00,,---,0.00,VWS V14.01,2013-03-31 13:49:00,
2013-03-31 09:54:00,45.0,24.4,29.78,SE,135,9.0,11.0,44,0.00,,---,0.00,VWS V14.01,2013-03-31 13:54:00,
2013-03-31 09:59:00,46.0,25.3,29.78,SSE,158,5.0,11.0,44,0.00,,---,0.00,VWS V14.01,2013-03-31 13:59:00,
2013-03-31 10:04:00,46.0,24.8,29.78,South,180,6.0,10.0,43,0.00,,---,0.00,VWS V14.01,2013-03-31 14:04:00,
2013-03-31 10:09:00,46.0,24.8,29.78,SSW,202,8.0,10.0,43,0.00,,---,0.00,VWS V14.01,2013-03-31 14:09:00,
2013-03-31 10:15:00,47.0,25.7,29.77,SSE,158,2.0,10.0,43,0.00,,---,0.00,VWS V14.01,2013-03-31 14:15:00,
2013-03-31 10:20:00,47.0,25.7,29.77,SE,135,6.0,10.0,43,0.00,,---,0.00,VWS V14.01,2013-03-31 14:20:00,
2013-03-31 10:25:00,47.0,25.7,29.77,SE,135,4.0,8.0,43,0.00,,---,0.00,VWS V14.01,2013-03-31 14:25:00,
2013-03-31 10:30:00,47.0,25.7,29.77,South,180,5.0,12.0,43,0.00,,---,0.00,VWS V14.01,2013-03-31 14:30:00,
2013-03-31 10:35:00,47.0,25.1,29.77,SSE,158,6.0,12.0,42,0.00,,---,0.00,VWS V14.01,2013-03-31 14:35:00,
2013-03-31 10:40:00,48.0,26.0,29.77,SSE,158,10.0,14.0,42,0.00,,---,0.00,VWS V14.01,2013-03-31 14:40:00,
2013-03-31 10:45:00,48.0,25.4,29.76,South,180,7.0,14.0,41,0.00,,---,0.00,VWS V14.01,2013-03-31 14:45:00,
2013-03-31 10:50:00,48.0,25.4,29.76,SW,225,13.0,20.0,41,0.00,,---,0.00,VWS V14.01,2013-03-31 14:50:00,
2013-03-31 10:55:00,49.0,26.9,29.76,SSW,202,8.0,20.0,42,0.00,,---,0.00,VWS V14.01,2013-03-31 14:55:00,
2013-03-31 11:01:00,50.0,27.2,29.75,SSW,202,5.0,6.0,41,0.00,,---,0.00,VWS V14.01,2013-03-31 15:01:00,
2013-03-31 11:06:00,50.0,26.6,29.75,South,180,6.0,11.0,40,0.00,,---,0.00,VWS V14.01,2013-03-31 15:06:00,
2013-03-31 11:12:00,50.0,27.2,29.75,SW,225,5.0,14.0,41,0.00,,---,0.00,VWS V14.01,2013-03-31 15:12:00,
2013-03-31 11:17:00,50.0,27.2,29.75,South,180,6.0,15.0,41,0.00,,---,0.00,VWS V14.01,2013-03-31 15:17:00,
2013-03-31 11:22:00,50.0,27.2,29.75,South,180,10.0,13.0,41,0.00,,---,0.00,VWS V14.01,2013-03-31 15:22:00,
2013-03-31 11:27:00,51.0,28.7,29.75,South,180,3.0,13.0,42,0.00,,---,0.00,VWS V14.01,2013-03-31 15:27:00,
2013-03-31 11:32:00,50.0,27.2,29.75,SW,225,7.0,18.0,41,0.00,,---,0.00,VWS V14.01,2013-03-31 15:32:00,
2013-03-31 11:37:00,50.0,27.2,29.75,SSW,202,8.0,18.0,41,0.00,,---,0.00,VWS V14.01,2013-03-31 15:37:00,
2013-03-31 11:43:00,50.0,27.2,29.75,South,180,11.0,14.0,41,0.00,,---,0.00,VWS V14.01,2013-03-31 15:43:00,
2013-03-31 11:48:00,50.0,27.2,29.75,SW,225,10.0,16.0,41,0.00,,---,0.00,VWS V14.01,2013-03-31 15:48:00,
2013-03-31 11:53:00,50.0,27.2,29.75,SSW,202,6.0,16.0,41,0.00,,---,0.00,VWS V14.01,2013-03-31 15:53:00,
2013-03-31 11:58:00,51.0,28.1,29.75,SE,135,4.0,16.0,41,0.00,,---,0.00,VWS V14.01,2013-03-31 15:58:00,
2013-03-31 12:03:00,51.0,28.1,29.74,South,180,8.0,13.0,41,0.00,,---,0.00,VWS V14.01,2013-03-31 16:03:00,
2013-03-31 12:08:00,51.0,28.1,29.74,South,180,8.0,15.0,41,0.00,,---,0.00,VWS V14.01,2013-03-31 16:08:00,
2013-03-31 12:13:00,50.0,27.2,29.74,South,180,10.0,16.0,41,0.00,,---,0.00,VWS V14.01,2013-03-31 16:13:00,
2013-03-31 12:18:00,50.0,27.2,29.74,SSW,202,10.0,21.0,41,0.00,,---,0.00,VWS V14.01,2013-03-31 16:18:00,
2013-03-31 12:23:00,50.0,27.8,29.74,South,180,6.0,15.0,42,0.00,,---,0.00,VWS V14.01,2013-03-31 16:23:00,
2013-03-31 12:28:00,51.0,28.7,29.74,SW,225,6.0,16.0,42,0.00,,---,0.00,VWS V14.01,2013-03-31 16:28:00,
2013-03-31 12:33:00,51.0,28.7,29.73,SSW,202,8.0,16.0,42,0.00,,---,0.00,VWS V14.01,2013-03-31 16:33:00,
2013-03-31 12:39:00,51.0,28.7,29.73,South,180,10.0,16.0,42,0.00,,---,0.00,VWS V14.01,2013-03-31 16:39:00,
2013-03-31 12:44:00,50.0,27.8,29.73,SSW,202,14.0,21.0,42,0.00,,---,0.00,VWS V14.01,2013-03-31 16:44:00,
2013-03-31 12:49:00,51.0,29.3,29.73,SSW,202,11.0,21.0,43,0.00,,---,0.00,VWS V14.01,2013-03-31 16:49:00,
2013-03-31 12:54:00,51.0,29.3,29.73,South,180,5.0,21.0,43,0.00,,---,0.00,VWS V14.01,2013-03-31 16:54:00,
2013-03-31 12:59:00,51.0,30.4,29.73,SSW,202,8.0,21.0,45,0.00,,---,0.00,VWS V14.01,2013-03-31 16:59:00,
2013-03-31 13:04:00,50.0,30.6,29.73,South,180,12.0,22.0,47,0.00,,---,0.00,VWS V14.01,2013-03-31 17:04:00,
2013-03-31 13:09:00,50.0,31.1,29.73,West,270,14.0,22.0,48,0.00,,---,0.00,VWS V14.01,2013-03-31 17:09:00,
2013-03-31 13:14:00,50.0,32.1,29.73,WSW,248,10.0,22.0,50,0.00,,---,0.00,VWS V14.01,2013-03-31 17:14:00,
2013-03-31 13:19:00,49.0,32.2,29.73,SSW,202,14.0,22.0,52,0.00,,---,0.00,VWS V14.01,2013-03-31 17:19:00,
2013-03-31 13:24:00,49.0,32.2,29.73,SW,225,6.0,13.0,52,0.00,,---,0.00,VWS V14.01,2013-03-31 17:24:00,
2013-03-31 13:29:00,49.0,33.1,29.73,SSW,202,15.0,18.0,54,0.00,,---,0.00,VWS V14.01,2013-03-31 17:29:00,
2013-03-31 13:34:00,49.0,33.5,29.72,SSE,158,8.0,18.0,55,0.00,,---,0.00,VWS V14.01,2013-03-31 17:34:00,
2013-03-31 13:39:00,48.0,33.9,29.73,SSE,158,13.0,18.0,58,0.00,,---,0.00,VWS V14.01,2013-03-31 17:39:00,
2013-03-31 13:45:00,48.0,36.0,29.73,South,180,9.0,18.0,63,0.00,,---,0.00,VWS V14.01,2013-03-31 17:45:00,
2013-03-31 13:50:00,47.0,36.2,29.73,South,180,6.0,18.0,66,0.00,,---,0.00,VWS V14.01,2013-03-31 17:50:00,
2013-03-31 13:55:00,47.0,37.4,29.73,South,180,8.0,18.0,69,0.00,,---,0.00,VWS V14.01,2013-03-31 17:55:00,
2013-03-31 14:00:00,46.0,37.1,29.73,SSE,158,5.0,18.0,71,0.00,,---,0.00,VWS V14.01,2013-03-31 18:00:00,
2013-03-31 14:05:00,46.0,38.2,29.73,SSE,158,5.0,10.0,74,0.00,,---,0.00,VWS V14.01,2013-03-31 18:05:00,
2013-03-31 14:10:00,45.0,38.2,29.72,SW,225,5.0,14.0,77,0.00,,---,0.00,VWS V14.01,2013-03-31 18:10:00,
2013-03-31 14:15:00,45.0,38.9,29.72,SSW,202,10.0,14.0,79,0.00,,---,0.00,VWS V14.01,2013-03-31 18:15:00,
2013-03-31 14:20:00,45.0,39.8,29.72,SSW,202,8.0,8.0,82,0.00,,---,0.00,VWS V14.01,2013-03-31 18:20:00,
2013-03-31 14:25:00,45.0,40.5,29.72,South,180,3.0,10.0,84,0.01,,---,0.01,VWS V14.01,2013-03-31 18:25:00,
2013-03-31 14:30:00,45.0,40.5,29.72,SSW,202,6.0,12.0,84,0.01,,---,0.01,VWS V14.01,2013-03-31 18:30:00,
2013-03-31 14:36:00,44.0,40.1,29.72,South,180,7.0,12.0,86,0.02,,---,0.02,VWS V14.01,2013-03-31 18:36:00,
2013-03-31 14:41:00,44.0,40.4,29.71,SSE,158,6.0,7.0,87,0.02,,---,0.02,VWS V14.01,2013-03-31 18:41:00,
2013-03-31 14:46:00,44.0,40.4,29.71,SW,225,10.0,10.0,87,0.03,,---,0.03,VWS V14.01,2013-03-31 18:46:00,
2013-03-31 14:51:00,44.0,40.7,29.71,SSE,158,7.0,10.0,88,0.03,,---,0.03,VWS V14.01,2013-03-31 18:51:00,
2013-03-31 14:56:00,43.0,39.7,29.71,SSE,158,13.0,14.0,88,0.03,,---,0.03,VWS V14.01,2013-03-31 18:56:00,
2013-03-31 15:01:00,44.0,40.7,29.71,SSE,158,6.0,10.0,88,0.03,,---,0.03,VWS V14.01,2013-03-31 19:01:00,
2013-03-31 15:06:00,43.0,39.7,29.71,SSW,202,6.0,11.0,88,0.03,,---,0.03,VWS V14.01,2013-03-31 19:06:00,
2013-03-31 15:11:00,43.0,40.0,29.70,South,180,8.0,11.0,89,0.04,,---,0.04,VWS V14.01,2013-03-31 19:11:00,
2013-03-31 15:17:00,43.0,40.0,29.70,South,180,9.0,12.0,89,0.04,,---,0.04,VWS V14.01,2013-03-31 19:17:00,
2013-03-31 15:22:00,43.0,40.0,29.70,SSE,158,9.0,10.0,89,0.04,,---,0.04,VWS V14.01,2013-03-31 19:22:00,
2013-03-31 15:27:00,43.0,40.0,29.70,South,180,4.0,12.0,89,0.04,,---,0.04,VWS V14.01,2013-03-31 19:27:00,
2013-03-31 15:32:00,43.0,39.7,29.70,SSE,158,5.0,13.0,88,0.04,,---,0.04,VWS V14.01,2013-03-31 19:32:00,
2013-03-31 15:37:00,43.0,40.0,29.69,South,180,2.0,13.0,89,0.04,,---,0.04,VWS V14.01,2013-03-31 19:37:00,
2013-03-31 15:42:00,43.0,40.0,29.69,South,180,8.0,10.0,89,0.02,,---,0.04,VWS V14.01,2013-03-31 19:42:00,
2013-03-31 15:47:00,43.0,40.3,29.69,SSE,158,5.0,10.0,90,0.02,,---,0.04,VWS V14.01,2013-03-31 19:47:00,
2013-03-31 15:52:00,43.0,40.3,29.69,SSE,158,5.0,11.0,90,0.02,,---,0.04,VWS V14.01,2013-03-31 19:52:00,
2013-03-31 15:58:00,43.0,40.3,29.69,South,180,3.0,11.0,90,0.02,,---,0.04,VWS V14.01,2013-03-31 19:58:00,
2013-03-31 16:03:00,43.0,40.3,29.69,SW,225,5.0,10.0,90,0.01,,---,0.04,VWS V14.01,2013-03-31 20:03:00,
2013-03-31 16:08:00,43.0,40.3,29.69,SE,135,7.0,11.0,90,0.01,,---,0.04,VWS V14.01,2013-03-31 20:08:00,
2013-03-31 16:13:00,43.0,40.3,29.69,SE,135,5.0,11.0,90,0.01,,---,0.04,VWS V14.01,2013-03-31 20:13:00,
2013-03-31 16:18:00,44.0,41.3,29.69,SSE,158,4.0,11.0,90,0.01,,---,0.04,VWS V14.01,2013-03-31 20:18:00,
2013-03-31 16:23:00,43.0,40.3,29.69,SE,135,6.0,9.0,90,0.00,,---,0.04,VWS V14.01,2013-03-31 20:23:00,
2013-03-31 16:28:00,44.0,41.5,29.68,WNW,292,1.0,9.0,91,0.01,,---,0.05,VWS V14.01,2013-03-31 20:28:00,
2013-03-31 16:33:00,44.0,41.3,29.68,SSE,158,3.0,10.0,90,0.01,,---,0.05,VWS V14.01,2013-03-31 20:33:00,
2013-03-31 16:38:00,43.0,40.3,29.68,South,180,7.0,12.0,90,0.01,,---,0.05,VWS V14.01,2013-03-31 20:38:00,
2013-03-31 16:43:00,43.0,40.6,29.68,SSW,202,13.0,13.0,91,0.01,,---,0.05,VWS V14.01,2013-03-31 20:43:00,
2013-03-31 16:49:00,43.0,40.6,29.68,SSW,202,10.0,13.0,91,0.01,,---,0.05,VWS V14.01,2013-03-31 20:49:00,
2013-03-31 16:54:00,43.0,40.3,29.67,SSW,202,3.0,15.0,90,0.01,,---,0.05,VWS V14.01,2013-03-31 20:54:00,
2013-03-31 16:59:00,43.0,40.3,29.67,South,180,11.0,15.0,90,0.01,,---,0.05,VWS V14.01,2013-03-31 20:59:00,
2013-03-31 17:04:00,43.0,40.3,29.67,SSW,202,5.0,11.0,90,0.01,,---,0.05,VWS V14.01,2013-03-31 21:04:00,
2013-03-31 17:09:00,43.0,40.0,29.67,WSW,248,5.0,13.0,89,0.01,,---,0.05,VWS V14.01,2013-03-31 21:09:00,
2013-03-31 17:14:00,43.0,40.3,29.67,SSW,202,3.0,13.0,90,0.01,,---,0.05,VWS V14.01,2013-03-31 21:14:00,
2013-03-31 17:19:00,43.0,40.3,29.67,South,180,4.0,13.0,90,0.01,,---,0.05,VWS V14.01,2013-03-31 21:19:00,
2013-03-31 17:24:00,43.0,40.0,29.67,South,180,6.0,8.0,89,0.01,,---,0.05,VWS V14.01,2013-03-31 21:24:00,
2013-03-31 17:30:00,43.0,40.3,29.67,SW,225,5.0,9.0,90,0.01,,---,0.05,VWS V14.01,2013-03-31 21:30:00,
2013-03-31 17:35:00,43.0,40.3,29.66,South,180,8.0,9.0,90,0.01,,---,0.05,VWS V14.01,2013-03-31 21:35:00,
2013-03-31 17:40:00,43.0,40.3,29.66,South,180,4.0,9.0,90,0.01,,---,0.05,VWS V14.01,2013-03-31 21:40:00,
2013-03-31 17:45:00,43.0,40.3,29.66,SW,225,3.0,6.0,90,0.00,,---,0.05,VWS V14.01,2013-03-31 21:45:00,
2013-03-31 17:50:00,43.0,40.3,29.66,South,180,7.0,10.0,90,0.00,,---,0.05,VWS V14.01,2013-03-31 21:50:00,
2013-03-31 17:55:00,43.0,40.6,29.66,SSW,202,5.0,10.0,91,0.00,,---,0.05,VWS V14.01,2013-03-31 21:55:00,
2013-03-31 18:00:00,43.0,40.6,29.66,SSE,158,3.0,4.0,91,0.00,,---,0.05,VWS V14.01,2013-03-31 22:00:00,
2013-03-31 18:05:00,43.0,40.6,29.66,South,180,3.0,8.0,91,0.01,,---,0.06,VWS V14.01,2013-03-31 22:05:00,
2013-03-31 18:10:00,43.0,40.6,29.66,SW,225,3.0,10.0,91,0.01,,---,0.06,VWS V14.01,2013-03-31 22:10:00,
2013-03-31 18:16:00,43.0,40.6,29.66,South,180,10.0,10.0,91,0.01,,---,0.06,VWS V14.01,2013-03-31 22:16:00,
2013-03-31 18:21:00,43.0,40.6,29.66,SE,135,3.0,8.0,91,0.01,,---,0.06,VWS V14.01,2013-03-31 22:21:00,
2013-03-31 18:26:00,43.0,40.6,29.66,SSE,158,3.0,8.0,91,0.01,,---,0.06,VWS V14.01,2013-03-31 22:26:00,
2013-03-31 18:31:00,43.0,40.6,29.66,SW,225,6.0,8.0,91,0.01,,---,0.06,VWS V14.01,2013-03-31 22:31:00,
2013-03-31 18:37:00,43.0,40.6,29.66,SW,225,5.0,8.0,91,0.01,,---,0.06,VWS V14.01,2013-03-31 22:37:00,
2013-03-31 18:42:00,43.0,40.6,29.66,SSE,158,4.0,7.0,91,0.01,,---,0.06,VWS V14.01,2013-03-31 22:42:00,
2013-03-31 18:47:00,43.0,40.6,29.66,SW,225,3.0,8.0,91,0.01,,---,0.06,VWS V14.01,2013-03-31 22:47:00,
2013-03-31 18:52:00,43.0,40.6,29.66,SSW,202,3.0,8.0,91,0.01,,---,0.06,VWS V14.01,2013-03-31 22:52:00,
2013-03-31 18:57:00,43.0,40.6,29.66,SSW,202,5.0,10.0,91,0.01,,---,0.06,VWS V14.01,2013-03-31 22:57:00,
2013-03-31 19:02:00,43.0,40.6,29.66,SW,225,2.0,5.0,91,0.01,,---,0.06,VWS V14.01,2013-03-31 23:02:00,
2013-03-31 19:07:00,43.0,40.6,29.66,SSE,158,5.0,10.0,91,0.01,,---,0.06,VWS V14.01,2013-03-31 23:07:00,
2013-03-31 19:12:00,43.0,40.6,29.66,SSE,158,5.0,10.0,91,0.01,,---,0.06,VWS V14.01,2013-03-31 23:12:00,
2013-03-31 19:17:00,43.0,40.8,29.66,South,180,3.0,10.0,92,0.01,,---,0.06,VWS V14.01,2013-03-31 23:17:00,
2013-03-31 19:22:00,43.0,40.8,29.66,SW,225,5.0,6.0,92,0.00,,---,0.06,VWS V14.01,2013-03-31 23:22:00,
2013-03-31 19:27:00,43.0,40.8,29.66,South,180,6.0,8.0,92,0.00,,---,0.06,VWS V14.01,2013-03-31 23:27:00,
2013-03-31 19:32:00,43.0,40.8,29.66,SSE,158,4.0,8.0,92,0.00,,---,0.06,VWS V14.01,2013-03-31 23:32:00,
2013-03-31 19:38:00,43.0,40.8,29.66,SSW,202,5.0,8.0,92,0.00,,---,0.06,VWS V14.01,2013-03-31 23:38:00,
2013-03-31 19:43:00,43.0,40.8,29.66,South,180,3.0,5.0,92,0.00,,---,0.06,VWS V14.01,2013-03-31 23:43:00,
2013-03-31 19:48:00,43.0,40.8,29.66,SW,225,6.0,10.0,92,0.00,,---,0.06,VWS V14.01,2013-03-31 23:48:00,
2013-03-31 19:53:00,43.0,40.8,29.66,South,180,8.0,10.0,92,0.00,,---,0.06,VWS V14.01,2013-03-31 23:53:00,
2013-03-31 19:58:00,43.0,40.8,29.66,SSE,158,5.0,10.0,92,0.00,,---,0.06,VWS V14.01,2013-03-31 23:58:00,
2013-03-31 20:03:00,43.0,41.1,29.66,South,180,3.0,7.0,93,0.00,,---,0.06,VWS V14.01,2013-04-01 00:03:00,
2013-03-31 20:08:00,43.0,41.1,29.66,South,180,4.0,10.0,93,0.00,,---,0.06,VWS V14.01,2013-04-01 00:08:00,
2013-03-31 20:13:00,43.0,41.1,29.66,South,180,3.0,10.0,93,0.00,,---,0.06,VWS V14.01,2013-04-01 00:13:00,
2013-03-31 20:18:00,43.0,41.1,29.66,SW,225,3.0,10.0,93,0.00,,---,0.06,VWS V14.01,2013-04-01 00:18:00,
2013-03-31 20:23:00,43.0,41.1,29.66,SW,225,5.0,5.0,93,0.00,,---,0.06,VWS V14.01,2013-04-01 00:23:00,
2013-03-31 20:29:00,43.0,41.1,29.66,SSW,202,3.0,7.0,93,0.00,,---,0.06,VWS V14.01,2013-04-01 00:29:00,
2013-03-31 20:34:00,43.0,41.1,29.66,South,180,5.0,11.0,93,0.00,,---,0.06,VWS V14.01,2013-04-01 00:34:00,
2013-03-31 20:39:00,43.0,41.1,29.66,SW,225,5.0,12.0,93,0.00,,---,0.06,VWS V14.01,2013-04-01 00:39:00,
2013-03-31 20:44:00,43.0,41.1,29.66,WSW,248,7.0,8.0,93,0.00,,---,0.06,VWS V14.01,2013-04-01 00:44:00,
2013-03-31 20:49:00,43.0,41.1,29.67,NNW,338,5.0,8.0,93,0.00,,---,0.06,VWS V14.01,2013-04-01 00:49:00,
2013-03-31 20:54:00,43.0,41.1,29.67,WNW,292,6.0,13.0,93,0.00,,---,0.06,VWS V14.01,2013-04-01 00:54:00,
2013-03-31 20:59:00,43.0,41.1,29.67,WNW,292,4.0,13.0,93,0.00,,---,0.06,VWS V14.01,2013-04-01 00:59:00,
2013-03-31 21:04:00,43.0,41.1,29.67,WSW,248,6.0,9.0,93,0.00,,---,0.06,VWS V14.01,2013-04-01 01:04:00,
2013-03-31 21:09:00,43.0,41.4,29.67,West,270,7.0,10.0,94,0.00,,---,0.06,VWS V14.01,2013-04-01 01:09:00,
2013-03-31 21:14:00,43.0,41.4,29.67,WSW,248,5.0,10.0,94,0.00,,---,0.06,VWS V14.01,2013-04-01 01:14:00,
2013-03-31 21:19:00,43.0,41.4,29.67,SW,225,3.0,10.0,94,0.00,,---,0.06,VWS V14.01,2013-04-01 01:19:00,
2013-03-31 21:24:00,43.0,41.4,29.67,SSW,202,4.0,11.0,94,0.00,,---,0.06,VWS V14.01,2013-04-01 01:24:00,
2013-03-31 21:30:00,43.0,41.4,29.67,SW,225,3.0,11.0,94,0.00,,---,0.06,VWS V14.01,2013-04-01 01:30:00,
2013-03-31 21:35:00,43.0,41.4,29.67,SW,225,6.0,11.0,94,0.00,,---,0.06,VWS V14.01,2013-04-01 01:35:00,
2013-03-31 21:40:00,43.0,41.4,29.68,West,270,5.0,11.0,94,0.00,,---,0.06,VWS V14.01,2013-04-01 01:40:00,
2013-03-31 21:45:00,43.0,41.4,29.67,WSW,248,6.0,12.0,94,0.00,,---,0.06,VWS V14.01,2013-04-01 01:45:00,
2013-03-31 21:50:00,43.0,41.4,29.68,WSW,248,8.0,12.0,94,0.00,,---,0.06,VWS V14.01,2013-04-01 01:50:00,
2013-03-31 21:55:00,43.0,41.4,29.67,West,270,8.0,12.0,94,0.00,,---,0.06,VWS V14.01,2013-04-01 01:55:00,
2013-03-31 22:00:00,43.0,41.4,29.67,WSW,248,4.0,12.0,94,0.00,,---,0.06,VWS V14.01,2013-04-01 02:00:00,
2013-03-31 22:05:00,43.0,41.1,29.67,SW,225,8.0,11.0,93,0.00,,---,0.06,VWS V14.01,2013-04-01 02:05:00,
2013-03-31 22:10:00,43.0,41.1,29.67,SW,225,6.0,11.0,93,0.00,,---,0.06,VWS V14.01,2013-04-01 02:10:00,
2013-03-31 22:15:00,42.0,40.1,29.68,WSW,248,3.0,11.0,93,0.00,,---,0.06,VWS V14.01,2013-04-01 02:15:00,
2013-03-31 22:20:00,42.0,40.1,29.67,SW,225,6.0,8.0,93,0.00,,---,0.06,VWS V14.01,2013-04-01 02:20:00,
2013-03-31 22:25:00,43.0,41.1,29.67,SW,225,6.0,11.0,93,0.00,,---,0.06,VWS V14.01,2013-04-01 02:25:00,
2013-03-31 22:30:00,43.0,41.1,29.67,WSW,248,11.0,13.0,93,0.00,,---,0.06,VWS V14.01,2013-04-01 02:30:00,
2013-03-31 22:36:00,43.0,41.1,29.66,WSW,248,5.0,13.0,93,0.00,,---,0.06,VWS V14.01,2013-04-01 02:36:00,
2013-03-31 22:41:00,43.0,41.1,29.66,SSW,202,7.0,10.0,93,0.00,,---,0.06,VWS V14.01,2013-04-01 02:41:00,
2013-03-31 22:46:00,42.0,40.1,29.66,SW,225,5.0,10.0,93,0.00,,---,0.06,VWS V14.01,2013-04-01 02:46:00,
2013-03-31 22:51:00,42.0,40.1,29.66,SW,225,5.0,11.0,93,0.00,,---,0.06,VWS V14.01,2013-04-01 02:51:00,
2013-03-31 22:56:00,42.0,40.1,29.66,WSW,248,6.0,13.0,93,0.00,,---,0.06,VWS V14.01,2013-04-01 02:56:00,
2013-03-31 23:01:00,42.0,40.1,29.66,WSW,248,5.0,13.0,93,0.00,,---,0.06,VWS V14.01,2013-04-01 03:01:00,
2013-03-31 23:06:00,42.0,40.1,29.65,SSW,202,10.0,13.0,93,0.00,,---,0.06,VWS V14.01,2013-04-01 03:06:00,
2013-03-31 23:11:00,42.0,40.1,29.65,SW,225,11.0,15.0,93,0.00,,---,0.06,VWS V14.01,2013-04-01 03:11:00,
2013-03-31 23:16:00,42.0,40.1,29.65,WSW,248,10.0,15.0,93,0.00,,---,0.06,VWS V14.01,2013-04-01 03:16:00,
2013-03-31 23:22:00,42.0,40.1,29.65,SW,225,8.0,12.0,93,0.00,,---,0.06,VWS V14.01,2013-04-01 03:22:00,
2013-03-31 23:27:00,42.0,40.1,29.65,SW,225,15.0,15.0,93,0.00,,---,0.06,VWS V14.01,2013-04-01 03:27:00,
2013-03-31 23:32:00,42.0,39.8,29.64,WSW,248,7.0,16.0,92,0.00,,---,0.06,VWS V14.01,2013-04-01 03:32:00,
2013-03-31 23:37:00,42.0,39.8,29.64,South,180,10.0,16.0,92,0.00,,---,0.06,VWS V14.01,2013-04-01 03:37:00,
2013-03-31 23:42:00,43.0,40.8,29.64,SSW,202,10.0,13.0,92,0.00,,---,0.06,VWS V14.01,2013-04-01 03:42:00,
2013-03-31 23:48:00,43.0,40.6,29.63,SSW,202,8.0,15.0,91,0.00,,---,0.06,VWS V14.01,2013-04-01 03:48:00,
2013-03-31 23:53:00,43.0,40.6,29.63,SW,225,9.0,16.0,91,0.00,,---,0.06,VWS V14.01,2013-04-01 03:53:00,
2013-03-31 23:58:00,43.0,40.3,29.63,SW,225,10.0,16.0,90,0.00,,---,0.06,VWS V14.01,2013-04-01 03:58:00,